Time;durP1;ratioP1;P1;durP2;ratioP2;P2;SDS_P1;SDS_P2;PMS_P1;PMS_P2;Temp;Humidity;BMP_temperature;BMP_pressure;BME280_temperature;BME280_humidity;BME280_pressure;Samples;Min_cycle;Max_cycle;Signal;HPM_P1;HPM_P2
2020/12/01 00:01:52;;;;;;;3.63;2.03;;;3.00;99.90;;;;;;5074316;28;20193;-79
2020/12/01 00:04:18;;;;;;;2.40;2.00;;;3.00;99.90;;;;;;5075497;28;20188;-77
2020/12/01 00:06:44;;;;;;;3.30;2.13;;;3.00;99.90;;;;;;5075464;28;20221;-78
2020/12/01 00:09:09;;;;;;;3.37;2.63;;;3.00;99.90;;;;;;5076862;28;20664;-80
2020/12/01 00:11:35;;;;;;;2.63;2.30;;;3.00;99.90;;;;;;5069857;28;20734;-84
2020/12/01 00:14:01;;;;;;;2.47;1.87;;;3.00;99.90;;;;;;5072646;28;20284;-79
2020/12/01 00:16:26;;;;;;;3.17;2.20;;;3.00;99.90;;;;;;5075377;28;20184;-81
2020/12/01 00:18:52;;;;;;;2.30;1.83;;;3.10;99.90;;;;;;5075408;28;20200;-80
2020/12/01 00:21:19;;;;;;;2.40;2.20;;;3.10;99.90;;;;;;5075669;28;20197;-81
2020/12/01 00:23:45;;;;;;;2.33;2.10;;;3.10;99.90;;;;;;5076292;28;20185;-80
2020/12/01 00:26:13;;;;;;;2.27;1.63;;;3.10;99.90;;;;;;5076350;28;20195;-78
2020/12/01 00:28:39;;;;;;;1.67;1.43;;;3.10;99.90;;;;;;5092341;28;20208;-79
2020/12/01 00:31:04;;;;;;;1.93;1.37;;;3.10;99.90;;;;;;5075890;28;20189;-80
2020/12/01 00:33:32;;;;;;;2.30;2.10;;;3.10;99.90;;;;;;5075278;28;20182;-79
2020/12/01 00:35:58;;;;;;;1.90;1.63;;;3.10;99.90;;;;;;5077131;28;20288;-84
2020/12/01 00:38:23;;;;;;;1.90;1.50;;;3.10;99.90;;;;;;5078162;28;20292;-80
2020/12/01 00:40:50;;;;;;;2.07;1.80;;;3.20;99.90;;;;;;5075938;28;20212;-79
2020/12/01 00:43:16;;;;;;;3.27;2.67;;;3.20;99.90;;;;;;5084448;28;20178;-78
2020/12/01 00:45:43;;;;;;;2.63;2.03;;;3.20;99.90;;;;;;5075852;28;21259;-83
2020/12/01 00:48:09;;;;;;;2.57;2.00;;;3.20;99.90;;;;;;5077457;28;21080;-80
2020/12/01 00:50:34;;;;;;;1.83;1.47;;;3.20;99.90;;;;;;5077026;28;20215;-78
2020/12/01 00:53:01;;;;;;;2.93;1.53;;;3.10;99.90;;;;;;5075881;28;21236;-78
2020/12/01 00:55:27;;;;;;;2.00;1.77;;;3.20;99.90;;;;;;5075192;28;20177;-78
2020/12/01 00:57:52;;;;;;;2.50;1.80;;;3.20;99.90;;;;;;5077026;28;20259;-81
2020/12/01 01:00:23;;;;;;;2.10;1.77;;;3.20;99.90;;;;;;5075886;28;20598;-80
2020/12/01 01:02:49;;;;;;;2.87;2.33;;;3.20;99.90;;;;;;5077419;28;20176;-82
2020/12/01 01:05:15;;;;;;;1.90;1.60;;;3.20;99.90;;;;;;5076080;28;20208;-78
2020/12/01 01:07:41;;;;;;;2.37;2.17;;;3.30;99.90;;;;;;5075249;28;20216;-78
2020/12/01 01:10:06;;;;;;;5.00;2.40;;;3.30;99.90;;;;;;5075259;28;20189;-78
2020/12/01 01:12:34;;;;;;;2.37;1.90;;;3.40;99.90;;;;;;5078613;28;20303;-77
2020/12/01 01:15:00;;;;;;;3.13;2.83;;;3.50;99.90;;;;;;5075084;28;21074;-84
2020/12/01 01:17:26;;;;;;;3.20;2.70;;;3.50;99.90;;;;;;5077715;28;20189;-79
2020/12/01 01:19:52;;;;;;;4.97;3.80;;;3.60;99.90;;;;;;5074446;28;20204;-82
2020/12/01 01:22:17;;;;;;;3.53;3.00;;;3.60;99.90;;;;;;5078427;28;20184;-81
2020/12/01 01:24:43;;;;;;;4.13;3.37;;;3.60;99.90;;;;;;5076624;28;20199;-79
2020/12/01 01:27:09;;;;;;;4.27;3.57;;;3.50;99.90;;;;;;5074730;28;20217;-78
2020/12/01 01:29:34;;;;;;;4.27;2.90;;;3.50;99.90;;;;;;5076937;28;20216;-78
2020/12/01 01:32:00;;;;;;;4.70;3.10;;;3.50;99.90;;;;;;5074681;28;20208;-79
2020/12/01 01:34:25;;;;;;;3.73;2.83;;;3.50;99.90;;;;;;5075532;28;20195;-78
2020/12/01 01:36:51;;;;;;;5.20;2.93;;;3.50;99.90;;;;;;5076109;28;20295;-78
2020/12/01 01:39:16;;;;;;;4.40;3.40;;;3.50;99.90;;;;;;5077134;28;20200;-79
2020/12/01 01:41:43;;;;;;;4.57;3.37;;;3.50;99.90;;;;;;5077390;28;20193;-83
2020/12/01 01:44:26;;;;;;;4.03;3.27;;;3.50;99.90;;;;;;5092746;28;20185;-81
2020/12/01 01:47:13;;;;;;;3.83;3.43;;;3.40;99.90;;;;;;5074311;28;20193;-80
2020/12/01 01:49:41;;;;;;;4.63;3.63;;;3.40;99.90;;;;;;5074945;28;20234;-80
2020/12/01 01:52:41;;;;;;;4.17;2.73;;;3.40;99.90;;;;;;5075439;28;20251;-79
2020/12/01 01:55:15;;;;;;;5.37;3.33;;;3.30;99.90;;;;;;5048200;28;20207;-78
2020/12/01 01:57:45;;;;;;;5.60;3.97;;;3.30;99.90;;;;;;5074816;28;20327;-81
2020/12/01 02:00:37;;;;;;;3.60;3.03;;;3.30;99.90;;;;;;5079460;28;20174;-78
2020/12/01 02:03:03;;;;;;;4.03;3.20;;;3.20;99.90;;;;;;5079015;28;20238;-78
2020/12/01 02:05:29;;;;;;;4.93;3.17;;;3.20;99.90;;;;;;5081634;28;21112;-81
2020/12/01 02:07:55;;;;;;;3.63;3.00;;;3.20;99.90;;;;;;5077875;28;20209;-78
2020/12/01 02:10:22;;;;;;;4.93;3.57;;;3.30;99.90;;;;;;5078500;28;20193;-80
2020/12/01 02:12:53;;;;;;;4.37;3.07;;;3.30;99.90;;;;;;5076816;28;20247;-78
2020/12/01 02:15:19;;;;;;;3.97;3.20;;;3.30;99.90;;;;;;5084876;28;20205;-79
2020/12/01 02:17:45;;;;;;;4.40;3.17;;;3.20;99.90;;;;;;5084133;28;20216;-81
2020/12/01 02:20:18;;;;;;;4.13;3.47;;;3.20;99.90;;;;;;5083212;28;20197;-83
2020/12/01 02:22:51;;;;;;;5.00;3.30;;;3.20;99.90;;;;;;5085948;28;20185;-81
2020/12/01 02:25:19;;;;;;;3.77;3.03;;;3.30;99.90;;;;;;5083183;28;20194;-84
2020/12/01 02:27:49;;;;;;;4.83;3.10;;;3.30;99.90;;;;;;5083955;28;20207;-82
2020/12/01 02:30:14;;;;;;;5.07;3.93;;;3.30;99.90;;;;;;5083912;28;20185;-82
2020/12/01 02:32:40;;;;;;;3.20;2.90;;;3.30;99.90;;;;;;5084209;28;20220;-82
2020/12/01 02:35:10;;;;;;;4.93;3.33;;;3.50;99.90;;;;;;5084008;28;20712;-82
2020/12/01 02:37:37;;;;;;;4.03;2.97;;;3.40;99.90;;;;;;5099491;28;20846;-83
2020/12/01 02:40:06;;;;;;;4.73;4.00;;;3.40;99.90;;;;;;5101074;28;20181;-81
2020/12/01 02:42:32;;;;;;;3.67;3.20;;;3.40;99.90;;;;;;5084650;28;20191;-83
2020/12/01 02:44:58;;;;;;;5.37;3.80;;;3.50;99.90;;;;;;5081711;28;20185;-84
2020/12/01 02:47:24;;;;;;;3.90;3.20;;;3.50;99.90;;;;;;5084088;28;20587;-81
2020/12/01 02:49:50;;;;;;;3.73;2.90;;;3.50;99.90;;;;;;5086402;28;20547;-82
2020/12/01 02:52:16;;;;;;;3.40;2.60;;;3.40;99.90;;;;;;5083283;28;20225;-82
2020/12/01 02:54:41;;;;;;;3.97;3.03;;;3.40;99.90;;;;;;5085261;28;20215;-85
2020/12/01 02:57:07;;;;;;;4.37;2.97;;;3.40;99.90;;;;;;5082406;28;20185;-83
2020/12/01 02:59:33;;;;;;;3.50;2.97;;;3.40;99.90;;;;;;5082426;28;20207;-84
2020/12/01 03:01:58;;;;;;;3.53;2.93;;;3.40;99.90;;;;;;5083695;28;20725;-82
2020/12/01 03:04:24;;;;;;;4.47;3.13;;;3.40;99.90;;;;;;5083882;28;20219;-82
2020/12/01 03:06:52;;;;;;;4.77;3.67;;;3.50;99.90;;;;;;5082587;28;20227;-82
2020/12/01 03:09:19;;;;;;;3.43;3.10;;;3.40;99.90;;;;;;5084672;28;20224;-82
2020/12/01 03:11:46;;;;;;;4.63;3.23;;;3.40;99.90;;;;;;5084062;28;20230;-82
2020/12/01 03:14:12;;;;;;;3.33;2.97;;;3.40;99.90;;;;;;5081227;28;20221;-83
2020/12/01 03:16:38;;;;;;;5.37;3.60;;;3.50;99.90;;;;;;5081860;28;20193;-83
2020/12/01 03:19:04;;;;;;;4.07;3.17;;;3.40;99.90;;;;;;5082326;28;20692;-84
2020/12/01 03:21:29;;;;;;;5.23;3.30;;;3.40;99.90;;;;;;5083819;28;20282;-81
2020/12/01 03:23:55;;;;;;;4.00;2.83;;;3.40;99.90;;;;;;5081063;28;20468;-82
2020/12/01 03:26:21;;;;;;;5.13;2.97;;;3.40;99.90;;;;;;5078384;28;20283;-78
2020/12/01 03:28:47;;;;;;;5.93;3.67;;;3.30;99.90;;;;;;5074954;28;20224;-83
2020/12/01 03:31:15;;;;;;;3.83;3.13;;;3.30;99.90;;;;;;5078040;28;20197;-79
2020/12/01 03:33:40;;;;;;;5.60;3.50;;;3.30;99.90;;;;;;5073453;28;20195;-80
2020/12/01 03:36:13;;;;;;;4.90;3.70;;;3.30;99.90;;;;;;5077107;28;20248;-82
2020/12/01 03:38:39;;;;;;;5.40;3.17;;;3.30;99.90;;;;;;5075480;28;20213;-83
2020/12/01 03:41:05;;;;;;;4.23;3.07;;;3.30;99.90;;;;;;5081329;28;20269;-82
2020/12/01 03:43:31;;;;;;;5.77;3.77;;;3.30;99.90;;;;;;5081715;28;20196;-81
2020/12/01 03:45:57;;;;;;;4.67;3.13;;;3.30;99.90;;;;;;5080570;28;20260;-83
2020/12/01 03:48:22;;;;;;;3.97;2.80;;;3.30;99.90;;;;;;5080859;28;20232;-80
2020/12/01 03:50:48;;;;;;;5.97;3.63;;;3.30;99.90;;;;;;5083002;28;20720;-84
2020/12/01 03:53:14;;;;;;;4.67;3.00;;;3.40;99.90;;;;;;5080527;28;20245;-78
2020/12/01 03:55:39;;;;;;;3.60;3.30;;;3.40;99.90;;;;;;5079911;28;20223;-83
2020/12/01 03:58:05;;;;;;;4.60;3.60;;;3.30;99.90;;;;;;5081369;28;20284;-81
2020/12/01 04:00:31;;;;;;;4.40;3.20;;;3.30;99.90;;;;;;5081942;28;20189;-81
2020/12/01 04:02:57;;;;;;;3.80;3.20;;;3.30;99.90;;;;;;5081124;28;20197;-82
2020/12/01 04:05:26;;;;;;;3.43;2.90;;;3.30;99.90;;;;;;5079809;28;20242;-82
2020/12/01 04:07:52;;;;;;;3.27;2.97;;;3.30;99.90;;;;;;5098255;28;20278;-80
2020/12/01 04:10:19;;;;;;;3.57;2.93;;;3.30;99.90;;;;;;5080818;28;20184;-78
2020/12/01 04:12:44;;;;;;;3.23;2.50;;;3.30;99.90;;;;;;5095087;28;20217;-80
2020/12/01 04:15:11;;;;;;;4.07;2.57;;;3.30;99.90;;;;;;5078893;28;20424;-82
2020/12/01 04:17:36;;;;;;;4.97;3.60;;;3.40;99.90;;;;;;5081611;28;20824;-81
2020/12/01 04:20:04;;;;;;;3.67;2.90;;;3.40;99.90;;;;;;5079570;28;20201;-78
2020/12/01 04:22:31;;;;;;;3.30;2.40;;;3.40;99.90;;;;;;5080791;28;20711;-83
2020/12/01 04:24:57;;;;;;;2.93;2.47;;;3.40;99.90;;;;;;5080963;28;20181;-82
2020/12/01 04:27:22;;;;;;;3.97;3.37;;;3.40;99.90;;;;;;5080068;28;20778;-80
2020/12/01 04:29:48;;;;;;;3.23;2.87;;;3.40;99.90;;;;;;5079982;28;20264;-81
2020/12/01 04:32:13;;;;;;;3.63;3.27;;;3.50;99.90;;;;;;5079625;28;20342;-81
2020/12/01 04:34:39;;;;;;;3.77;2.77;;;3.50;99.90;;;;;;5080587;28;20189;-83
2020/12/01 04:37:05;;;;;;;3.17;2.43;;;3.50;99.90;;;;;;5079316;28;20188;-82
2020/12/01 04:39:32;;;;;;;4.30;3.20;;;3.40;99.90;;;;;;5081844;28;20269;-82
2020/12/01 04:41:58;;;;;;;3.43;2.37;;;3.40;99.90;;;;;;5080398;28;20276;-82
2020/12/01 04:44:43;;;;;;;3.40;2.40;;;3.50;99.90;;;;;;5077462;28;20282;-85
2020/12/01 04:47:17;;;;;;;2.63;2.37;;;3.50;99.90;;;;;;5080480;28;20188;-83
2020/12/01 04:50:11;;;;;;;3.93;3.07;;;3.50;99.90;;;;;;5081420;28;20712;-81
2020/12/01 04:53:25;;;;;;;3.10;2.80;;;3.50;99.90;;;;;;5079407;28;20223;-83
2020/12/01 04:56:32;;;;;;;3.53;2.23;;;3.50;99.90;;;;;;5080384;28;20207;-78
2020/12/01 04:59:16;;;;;;;2.93;2.43;;;3.60;99.90;;;;;;5078221;28;20216;-79
2020/12/01 05:02:27;;;;;;;2.80;2.43;;;3.50;99.90;;;;;;5080988;28;20615;-82
2020/12/01 05:05:00;;;;;;;2.93;2.27;;;3.50;99.90;;;;;;5078859;28;20234;-84
2020/12/01 05:08:11;;;;;;;2.23;2.00;;;3.50;99.90;;;;;;5078539;28;20643;-80
2020/12/01 05:10:39;;;;;;;4.00;2.17;;;3.40;99.90;;;;;;5079368;28;20247;-80
2020/12/01 05:13:25;;;;;;;3.33;2.93;;;3.50;99.90;;;;;;5086271;28;20209;-80
2020/12/01 05:15:59;;;;;;;3.70;2.50;;;3.50;99.90;;;;;;5079464;28;20185;-82
2020/12/01 05:18:29;;;;;;;3.30;3.00;;;3.50;99.90;;;;;;5079087;28;20225;-80
2020/12/01 05:20:58;;;;;;;4.80;3.47;;;3.50;99.90;;;;;;5079584;28;20200;-79
2020/12/01 05:23:38;;;;;;;4.03;3.03;;;3.40;99.90;;;;;;5079832;28;20181;-78
2020/12/01 05:26:08;;;;;;;3.33;2.60;;;3.40;99.90;;;;;;5078394;28;20213;-82
2020/12/01 05:28:54;;;;;;;4.00;3.27;;;3.40;99.90;;;;;;5080148;28;20685;-81
2020/12/01 05:31:26;;;;;;;4.70;3.37;;;3.40;99.90;;;;;;5080382;28;20212;-82
2020/12/01 05:34:05;;;;;;;3.63;3.17;;;3.40;99.90;;;;;;5080092;28;20631;-80
2020/12/01 05:36:34;;;;;;;2.93;2.27;;;3.40;99.90;;;;;;5084794;28;20957;-81
2020/12/01 05:39:04;;;;;;;3.47;2.90;;;3.40;99.90;;;;;;5084710;28;20219;-81
2020/12/01 05:41:33;;;;;;;3.17;2.83;;;3.40;99.90;;;;;;5081926;28;20181;-81
2020/12/01 05:44:03;;;;;;;4.23;2.57;;;3.40;99.90;;;;;;5081831;28;20257;-80
2020/12/01 05:46:41;;;;;;;3.70;3.10;;;3.40;99.90;;;;;;5079413;28;20277;-81
2020/12/01 05:49:26;;;;;;;3.17;2.33;;;3.40;99.90;;;;;;5082941;28;20232;-82
2020/12/01 05:52:02;;;;;;;3.80;2.57;;;3.40;99.90;;;;;;5083451;28;20213;-81
2020/12/01 05:54:38;;;;;;;3.03;2.47;;;3.40;99.90;;;;;;5081934;28;20195;-80
2020/12/01 05:57:24;;;;;;;4.43;3.07;;;3.50;99.90;;;;;;5082022;28;20629;-81
2020/12/01 06:00:00;;;;;;;2.70;2.50;;;3.40;99.90;;;;;;5083517;28;20231;-81
2020/12/01 06:02:44;;;;;;;4.27;2.60;;;3.40;99.90;;;;;;5080188;28;20197;-81
2020/12/01 06:05:13;;;;;;;2.87;2.37;;;3.50;99.90;;;;;;5080279;28;20216;-81
2020/12/01 06:07:43;;;;;;;3.47;2.70;;;3.50;99.90;;;;;;5081941;28;20213;-81
2020/12/01 06:10:16;;;;;;;2.40;2.20;;;3.50;99.90;;;;;;5082625;28;20184;-81
2020/12/01 06:12:42;;;;;;;2.73;2.20;;;3.50;99.90;;;;;;5080578;28;20689;-80
2020/12/01 06:15:14;;;;;;;3.20;2.30;;;3.50;99.90;;;;;;5080890;28;20287;-80
2020/12/01 06:18:09;;;;;;;2.90;2.20;;;3.50;99.90;;;;;;5081465;28;20349;-80
2020/12/01 06:20:51;;;;;;;4.07;2.63;;;3.50;99.90;;;;;;5079598;28;20235;-78
2020/12/01 06:23:57;;;;;;;3.20;2.40;;;3.50;99.90;;;;;;5080617;28;20207;-83
2020/12/01 06:26:51;;;;;;;3.93;2.97;;;3.60;99.90;;;;;;5078747;28;20606;-79
2020/12/01 06:29:47;;;;;;;3.47;2.83;;;3.50;99.90;;;;;;5042656;28;20218;-81
2020/12/01 06:32:56;;;;;;;6.37;4.40;;;3.70;99.90;;;;;;5082068;28;20248;-80
2020/12/01 06:35:34;;;;;;;3.43;2.97;;;3.70;99.90;;;;;;5073507;28;20234;-81
2020/12/01 06:38:20;;;;;;;3.27;2.60;;;3.70;99.90;;;;;;5078360;28;20689;-80
2020/12/01 06:41:01;;;;;;;3.83;2.70;;;3.70;99.90;;;;;;5084829;28;20196;-80
2020/12/01 06:43:41;;;;;;;2.70;2.30;;;3.70;99.90;;;;;;5081909;28;20193;-79
2020/12/01 06:46:58;;;;;;;3.30;2.47;;;3.60;99.90;;;;;;5079758;28;20261;-78
2020/12/01 06:49:28;;;;;;;2.53;2.27;;;3.60;99.90;;;;;;5052408;28;20225;-84
2020/12/01 06:52:10;;;;;;;1.73;1.63;;;3.60;99.90;;;;;;5082037;28;20208;-83
2020/12/01 06:54:49;;;;;;;2.80;2.30;;;3.60;99.90;;;;;;5079944;28;20271;-80
2020/12/01 06:57:37;;;;;;;2.57;2.23;;;3.60;99.90;;;;;;5080213;28;20594;-83
2020/12/01 07:00:08;;;;;;;3.70;2.67;;;3.60;99.90;;;;;;5082559;28;20188;-83
2020/12/01 07:02:39;;;;;;;4.27;3.60;;;3.60;99.90;;;;;;5078035;28;20194;-81
2020/12/01 07:05:29;;;;;;;2.43;2.23;;;3.60;99.90;;;;;;5081154;28;20193;-81
2020/12/01 07:07:55;;;;;;;2.70;2.50;;;3.60;99.90;;;;;;5079678;28;20295;-78
2020/12/01 07:10:23;;;;;;;2.17;1.97;;;3.50;99.90;;;;;;5080785;28;20261;-80
2020/12/01 07:13:12;;;;;;;2.43;2.23;;;3.50;99.90;;;;;;5080768;28;20213;-81
2020/12/01 07:15:43;;;;;;;3.90;3.07;;;3.50;99.90;;;;;;5081967;28;20772;-82
2020/12/01 07:18:22;;;;;;;2.80;2.30;;;3.50;99.90;;;;;;5082311;28;20573;-79
2020/12/01 07:21:25;;;;;;;2.83;2.17;;;3.50;99.90;;;;;;5081115;28;20274;-85
2020/12/01 07:24:13;;;;;;;3.30;3.00;;;3.50;99.90;;;;;;5080052;28;20197;-79
2020/12/01 07:26:51;;;;;;;3.53;2.10;;;3.50;99.90;;;;;;5078272;28;20195;-78
2020/12/01 07:29:33;;;;;;;3.67;3.23;;;3.50;99.90;;;;;;5078471;28;20215;-81
2020/12/01 07:32:28;;;;;;;5.13;2.70;;;3.50;99.90;;;;;;5079445;28;20557;-79
2020/12/01 07:35:31;;;;;;;3.37;2.27;;;3.50;99.90;;;;;;5065818;28;20817;-84
2020/12/01 07:38:09;;;;;;;3.80;2.87;;;3.50;99.90;;;;;;5067583;28;20266;-78
2020/12/01 07:40:56;;;;;;;5.57;3.27;;;3.50;99.90;;;;;;5080812;28;20267;-80
2020/12/01 07:43:22;;;;;;;4.93;3.33;;;3.50;99.90;;;;;;5077997;28;20197;-80
2020/12/01 07:45:50;;;;;;;4.53;3.30;;;3.50;99.90;;;;;;5080802;28;20185;-82
2020/12/01 07:48:20;;;;;;;4.30;3.47;;;3.50;99.90;;;;;;5080850;28;20212;-82
2020/12/01 07:50:46;;;;;;;4.33;3.10;;;3.50;99.90;;;;;;5078521;28;20620;-78
2020/12/01 07:53:20;;;;;;;3.77;2.97;;;3.50;99.90;;;;;;5078541;28;20219;-78
2020/12/01 07:56:00;;;;;;;4.53;3.30;;;3.50;99.90;;;;;;5071065;28;20216;-79
2020/12/01 07:58:28;;;;;;;4.07;3.27;;;3.50;99.90;;;;;;5082184;28;20205;-78
2020/12/01 08:01:02;;;;;;;4.43;3.23;;;3.50;99.90;;;;;;5073828;28;20181;-78
2020/12/01 08:03:33;;;;;;;4.87;3.83;;;3.60;99.90;;;;;;5077881;28;20291;-78
2020/12/01 08:06:07;;;;;;;4.17;2.83;;;3.50;99.90;;;;;;5076869;28;20243;-77
2020/12/01 08:08:36;;;;;;;5.43;4.13;;;3.60;99.90;;;;;;5075374;28;20219;-80
2020/12/01 08:11:05;;;;;;;4.67;4.27;;;3.60;99.90;;;;;;5077097;28;20291;-78
2020/12/01 08:13:33;;;;;;;4.23;2.90;;;3.70;99.90;;;;;;5075083;28;20271;-80
2020/12/01 08:16:10;;;;;;;5.43;3.77;;;3.70;99.90;;;;;;5073337;28;20259;-79
2020/12/01 08:18:36;;;;;;;4.20;3.30;;;3.70;99.90;;;;;;5075035;28;20212;-81
2020/12/01 08:21:02;;;;;;;3.73;3.20;;;3.80;99.90;;;;;;5074310;28;20250;-78
2020/12/01 08:23:31;;;;;;;3.70;2.87;;;3.80;99.90;;;;;;5076548;28;20695;-84
2020/12/01 08:26:11;;;;;;;4.03;3.10;;;3.90;99.90;;;;;;5075728;28;20207;-83
2020/12/01 08:28:45;;;;;;;4.43;3.33;;;3.90;99.90;;;;;;5075267;28;20218;-82
2020/12/01 08:31:36;;;;;;;4.57;3.30;;;3.90;99.90;;;;;;5075507;28;20189;-78
2020/12/01 08:34:38;;;;;;;3.10;2.80;;;3.90;99.90;;;;;;5075435;28;20190;-78
2020/12/01 08:37:04;;;;;;;4.37;3.40;;;4.00;99.90;;;;;;5075219;28;20243;-78
2020/12/01 08:39:46;;;;;;;4.70;4.23;;;4.00;99.90;;;;;;5076212;28;20231;-82
2020/12/01 08:42:19;;;;;;;3.77;3.37;;;4.00;99.90;;;;;;5075283;28;20215;-83
2020/12/01 08:45:09;;;;;;;4.10;3.13;;;4.10;99.90;;;;;;5075398;28;20631;-76
2020/12/01 08:47:35;;;;;;;4.40;3.20;;;4.10;99.90;;;;;;5072032;28;20283;-76
2020/12/01 08:50:22;;;;;;;3.50;2.80;;;4.20;99.90;;;;;;5076212;28;21209;-80
2020/12/01 08:52:48;;;;;;;5.77;3.93;;;4.20;99.90;;;;;;5075459;28;20284;-80
2020/12/01 08:55:32;;;;;;;5.93;3.97;;;4.20;99.90;;;;;;5071411;28;20184;-81
2020/12/01 08:58:13;;;;;;;4.67;3.27;;;4.20;99.90;;;;;;5090528;28;20210;-79
2020/12/01 09:00:57;;;;;;;4.20;3.20;;;4.20;99.90;;;;;;5073588;28;20177;-78
2020/12/01 09:03:23;;;;;;;3.47;3.13;;;4.20;99.90;;;;;;5073718;28;20693;-78
2020/12/01 09:05:50;;;;;;;4.37;2.83;;;4.20;99.90;;;;;;5076369;28;20264;-78
2020/12/01 09:12:05;;;;;;;3.63;2.77;;;4.20;99.90;;;;;;5081978;28;20173;-80
2020/12/01 09:22:10;;;;;;;4.53;2.57;;;4.20;99.90;;;;;;5081313;28;20238;-82
2020/12/01 09:24:36;;;;;;;5.17;3.97;;;4.20;99.90;;;;;;5080923;28;20292;-79
2020/12/01 09:27:12;;;;;;;3.57;3.27;;;4.20;99.90;;;;;;5078709;28;20647;-80
2020/12/01 09:29:38;;;;;;;3.93;3.03;;;4.20;99.90;;;;;;5080798;28;20699;-78
2020/12/01 09:32:07;;;;;;;4.53;3.47;;;4.30;99.90;;;;;;5096205;28;20296;-78
2020/12/01 09:34:34;;;;;;;5.67;3.57;;;4.30;99.90;;;;;;5081443;28;20281;-76
2020/12/01 09:37:02;;;;;;;3.97;3.10;;;4.30;99.90;;;;;;5076914;28;20176;-76
2020/12/01 09:39:30;;;;;;;5.90;3.77;;;4.40;99.90;;;;;;5077071;28;20204;-76
2020/12/01 09:42:44;;;;;;;4.97;3.87;;;4.40;99.90;;;;;;5075384;28;20190;-76
2020/12/01 09:45:26;;;;;;;5.67;4.27;;;4.50;99.90;;;;;;5064391;28;20200;-76
2020/12/01 09:47:54;;;;;;;4.43;3.53;;;4.50;99.90;;;;;;5073456;28;20223;-76
2020/12/01 09:50:33;;;;;;;5.70;4.53;;;4.50;99.90;;;;;;5076787;28;20234;-82
2020/12/01 10:09:16;;;;;;;4.80;4.03;;;4.30;99.90;;;;;;5079561;28;20266;-79
2020/12/01 10:25:52;;;;;;;5.73;4.27;;;4.50;99.90;;;;;;5081868;28;20674;-78
2020/12/01 10:36:20;;;;;;;6.47;4.87;;;4.60;99.90;;;;;;5045890;28;20188;-81
2020/12/01 10:38:45;;;;;;;4.33;3.37;;;4.70;99.90;;;;;;5078904;28;20243;-81
2020/12/01 10:41:11;;;;;;;5.33;3.73;;;4.80;99.90;;;;;;5080279;28;20216;-78
2020/12/01 10:43:37;;;;;;;4.73;4.00;;;4.90;99.90;;;;;;5079020;28;20186;-79
2020/12/01 10:46:03;;;;;;;4.93;4.20;;;4.90;99.90;;;;;;5077810;28;20548;-81
2020/12/01 10:48:28;;;;;;;6.03;4.50;;;5.00;99.90;;;;;;5080103;28;20217;-82
2020/12/01 10:50:54;;;;;;;4.00;3.17;;;5.00;99.90;;;;;;5079121;28;20197;-81
2020/12/01 10:53:19;;;;;;;4.07;3.47;;;5.00;99.90;;;;;;5078988;28;20213;-80
2020/12/01 10:55:45;;;;;;;5.40;3.80;;;5.10;99.90;;;;;;5077351;28;20809;-81
2020/12/01 10:58:10;;;;;;;7.00;4.07;;;5.10;99.90;;;;;;5076105;28;20268;-79
2020/12/01 11:00:36;;;;;;;5.17;3.73;;;5.20;99.90;;;;;;5077259;28;20933;-78
2020/12/01 11:03:02;;;;;;;5.07;3.57;;;5.10;99.90;;;;;;5079205;28;20708;-79
2020/12/01 11:05:30;;;;;;;6.43;3.30;;;5.20;99.90;;;;;;5074300;28;20282;-82
2020/12/01 11:07:56;;;;;;;5.20;4.07;;;5.20;99.90;;;;;;5077556;28;20218;-79
2020/12/01 11:10:22;;;;;;;5.97;4.17;;;5.10;99.90;;;;;;5076477;28;20566;-79
2020/12/01 11:12:48;;;;;;;5.17;3.93;;;5.10;99.90;;;;;;5079341;28;20219;-78
2020/12/01 11:15:14;;;;;;;5.70;4.13;;;5.10;99.90;;;;;;5078905;28;20192;-79
2020/12/01 11:17:40;;;;;;;4.37;3.13;;;5.10;99.90;;;;;;5080013;28;20755;-78
2020/12/01 11:20:07;;;;;;;6.07;4.07;;;5.30;99.90;;;;;;5067724;28;20284;-80
2020/12/01 11:22:33;;;;;;;4.93;3.47;;;5.30;99.90;;;;;;5075757;28;20260;-81
2020/12/01 11:24:59;;;;;;;5.63;3.83;;;5.30;99.90;;;;;;5076433;28;20780;-77
2020/12/01 11:27:24;;;;;;;4.00;3.03;;;5.30;99.90;;;;;;5077403;28;20279;-80
2020/12/01 11:29:50;;;;;;;4.60;3.37;;;5.40;99.90;;;;;;5071806;28;20300;-78
2020/12/01 11:32:16;;;;;;;5.80;3.67;;;5.40;99.90;;;;;;5076047;28;20300;-80
2020/12/01 11:34:41;;;;;;;5.10;3.67;;;5.40;99.90;;;;;;5076038;28;20246;-80
2020/12/01 11:37:07;;;;;;;4.53;3.53;;;5.40;99.90;;;;;;5075070;28;20275;-82
2020/12/01 11:39:33;;;;;;;5.30;3.93;;;5.30;99.90;;;;;;5077335;28;20205;-81
2020/12/01 11:41:58;;;;;;;4.60;3.57;;;5.30;99.90;;;;;;5073329;28;20262;-79
2020/12/01 11:44:24;;;;;;;5.40;3.30;;;5.30;99.90;;;;;;5075510;28;20616;-80
2020/12/01 11:46:50;;;;;;;4.80;3.90;;;5.40;99.90;;;;;;5074400;28;20189;-81
2020/12/01 11:49:16;;;;;;;6.07;3.63;;;5.30;99.90;;;;;;5075140;28;20213;-83
2020/12/01 11:51:45;;;;;;;3.83;3.07;;;5.20;99.90;;;;;;5074278;28;20235;-81
2020/12/01 11:54:11;;;;;;;2.97;2.63;;;5.20;99.90;;;;;;5074735;28;20215;-81
2020/12/01 11:56:37;;;;;;;5.87;4.00;;;5.20;99.90;;;;;;5071915;28;20189;-78
2020/12/01 11:59:03;;;;;;;5.90;4.13;;;5.00;99.90;;;;;;5073918;28;20198;-80
2020/12/01 12:01:29;;;;;;;4.20;3.17;;;5.00;99.90;;;;;;5076400;28;20184;-80
2020/12/01 12:03:55;;;;;;;5.47;4.40;;;4.90;99.90;;;;;;5075470;28;20943;-79
2020/12/01 12:06:21;;;;;;;3.47;3.17;;;4.90;99.90;;;;;;5077399;28;20183;-79
2020/12/01 12:08:47;;;;;;;3.83;3.13;;;4.90;99.90;;;;;;5076627;28;20894;-83
2020/12/01 12:11:13;;;;;;;3.80;3.20;;;4.80;99.90;;;;;;5077580;28;20273;-80
2020/12/01 12:13:39;;;;;;;6.27;4.70;;;4.90;99.90;;;;;;5076390;28;20209;-80
2020/12/01 12:16:05;;;;;;;4.13;3.23;;;4.90;99.90;;;;;;5076444;28;20280;-78
2020/12/01 12:18:30;;;;;;;2.93;2.40;;;4.90;99.90;;;;;;5075428;28;20233;-82
2020/12/01 12:20:56;;;;;;;4.87;3.00;;;4.90;99.90;;;;;;5076184;28;20690;-78
2020/12/01 12:23:24;;;;;;;4.57;3.50;;;4.90;99.90;;;;;;5076000;28;20276;-83
2020/12/01 12:25:49;;;;;;;4.00;3.37;;;4.80;99.90;;;;;;5078255;28;20170;-81
2020/12/01 12:28:15;;;;;;;3.50;2.47;;;4.80;99.90;;;;;;5078471;28;20212;-82
2020/12/01 12:30:42;;;;;;;5.60;3.90;;;4.90;99.90;;;;;;5077029;28;20185;-83
2020/12/01 12:33:07;;;;;;;3.83;3.13;;;4.80;99.90;;;;;;5077091;28;20224;-84
2020/12/01 12:35:33;;;;;;;5.10;3.70;;;4.80;99.90;;;;;;5075164;28;20181;-82
2020/12/01 12:37:59;;;;;;;3.27;2.87;;;4.80;99.90;;;;;;5075587;28;20209;-80
2020/12/01 12:40:24;;;;;;;4.90;3.43;;;4.80;99.90;;;;;;5076434;28;20207;-78
2020/12/01 12:42:50;;;;;;;3.80;3.37;;;4.70;99.90;;;;;;5075111;28;20292;-82
2020/12/01 12:45:16;;;;;;;4.63;3.47;;;4.70;99.90;;;;;;5074830;28;20196;-77
2020/12/01 12:47:41;;;;;;;4.87;3.83;;;4.60;99.90;;;;;;5076100;28;20200;-79
2020/12/01 12:50:08;;;;;;;4.87;3.63;;;4.60;99.90;;;;;;5077707;28;20208;-82
2020/12/01 12:52:34;;;;;;;5.17;3.50;;;4.60;99.90;;;;;;5073432;28;20208;-78
2020/12/01 12:55:00;;;;;;;5.17;3.93;;;4.70;99.90;;;;;;5074814;28;20233;-80
2020/12/01 12:57:25;;;;;;;3.20;2.70;;;4.70;99.90;;;;;;5073087;28;20663;-80
2020/12/01 12:59:51;;;;;;;4.87;3.13;;;4.70;99.90;;;;;;5074803;28;20872;-79
2020/12/01 13:02:17;;;;;;;5.03;3.17;;;4.80;99.90;;;;;;5073030;28;20196;-79
2020/12/01 13:04:42;;;;;;;6.03;4.07;;;4.80;99.90;;;;;;5074538;28;20215;-80
2020/12/01 13:07:08;;;;;;;5.73;3.50;;;4.80;99.90;;;;;;5074630;28;20192;-79
2020/12/01 13:09:34;;;;;;;4.47;3.43;;;4.70;99.90;;;;;;5074018;28;20208;-80
2020/12/01 13:11:59;;;;;;;6.30;4.43;;;4.70;99.90;;;;;;5076851;28;20694;-79
2020/12/01 13:14:25;;;;;;;4.20;3.30;;;4.70;99.90;;;;;;5091921;28;20188;-78
2020/12/01 13:16:52;;;;;;;6.97;5.27;;;4.60;99.90;;;;;;5075132;28;20209;-79
2020/12/01 13:19:19;;;;;;;5.63;4.17;;;4.60;99.90;;;;;;5075167;28;20202;-80
2020/12/01 13:21:46;;;;;;;6.10;4.40;;;4.60;99.90;;;;;;5072248;28;20638;-80
2020/12/01 13:24:12;;;;;;;6.43;4.10;;;4.60;99.90;;;;;;5074971;28;20188;-79
2020/12/01 13:26:37;;;;;;;7.73;4.53;;;4.60;99.90;;;;;;5071768;28;20442;-81
2020/12/01 13:29:04;;;;;;;5.97;4.73;;;4.60;99.90;;;;;;5072882;28;20209;-80
2020/12/01 13:31:29;;;;;;;8.67;4.97;;;4.60;99.90;;;;;;5071625;28;20185;-80
2020/12/01 13:33:55;;;;;;;7.07;5.50;;;4.60;99.90;;;;;;5072182;28;20223;-78
2020/12/01 13:36:22;;;;;;;8.60;5.80;;;4.60;99.90;;;;;;5075250;28;20186;-80
2020/12/01 13:38:48;;;;;;;9.03;7.07;;;4.60;99.90;;;;;;5071776;28;20236;-80
2020/12/01 13:41:14;;;;;;;11.00;7.10;;;4.60;99.90;;;;;;5069458;28;20680;-80
2020/12/01 13:43:40;;;;;;;6.23;4.87;;;4.60;99.90;;;;;;5074469;28;20181;-82
2020/12/01 13:46:06;;;;;;;12.00;9.13;;;4.60;99.90;;;;;;5071729;28;20222;-81
2020/12/01 13:48:32;;;;;;;9.20;6.40;;;4.50;99.90;;;;;;5074140;28;20683;-79
2020/12/01 13:50:58;;;;;;;13.53;6.37;;;4.50;99.90;;;;;;5071578;28;20184;-78
2020/12/01 13:53:23;;;;;;;10.37;5.93;;;4.50;99.90;;;;;;5088438;28;20248;-80
2020/12/01 13:55:50;;;;;;;11.90;7.60;;;4.50;99.90;;;;;;5075612;28;20276;-79
2020/12/01 13:58:15;;;;;;;8.27;5.80;;;4.50;99.90;;;;;;5078112;28;20201;-81
2020/12/01 14:00:41;;;;;;;7.73;5.80;;;4.50;99.90;;;;;;5077572;28;20238;-77
2020/12/01 14:03:07;;;;;;;9.97;6.73;;;4.40;99.90;;;;;;5077304;28;20204;-77
2020/12/01 14:05:33;;;;;;;6.90;4.53;;;4.40;99.90;;;;;;5080473;28;20189;-83
2020/12/01 14:08:01;;;;;;;7.43;5.53;;;4.40;99.90;;;;;;5078197;28;20216;-83